Time;durP1;ratioP1;P1;durP2;ratioP2;P2;SDS_P1;SDS_P2;PMS_P1;PMS_P2;Temp;Humidity;BMP_temperature;BMP_pressure;BME280_temperature;BME280_humidity;BME280_pressure;Samples;Min_cycle;Max_cycle;Signal;HPM_P1;HPM_P2
2021/04/02 00:01:12;;;;;;;36.97;14.00;;;9.30;99.90;;;;;;4396422;28;659012;-85
2021/04/02 00:04:00;;;;;;;36.20;15.70;;;9.30;99.90;;;;;;4414737;28;659324;-85
2021/04/02 00:06:47;;;;;;;35.90;14.23;;;9.40;99.90;;;;;;4422518;28;658405;-85
2021/04/02 00:09:35;;;;;;;31.77;14.00;;;9.40;99.90;;;;;;4418212;28;658875;-84
2021/04/02 00:12:22;;;;;;;35.07;14.87;;;9.50;99.90;;;;;;4393691;28;658399;-86
2021/04/02 00:15:13;;;;;;;40.23;14.43;;;9.40;99.90;;;;;;4430565;28;659095;-84
2021/04/02 00:18:00;;;;;;;39.27;13.73;;;9.50;99.90;;;;;;4396010;28;658754;-86
2021/04/02 00:20:47;;;;;;;32.73;14.87;;;9.50;99.90;;;;;;4396795;28;659260;-86
2021/04/02 00:23:34;;;;;;;33.20;14.63;;;9.50;99.90;;;;;;4439414;28;659012;-85
2021/04/02 00:26:23;;;;;;;35.57;14.57;;;9.50;99.90;;;;;;4416488;28;657865;-86
2021/04/02 00:29:11;;;;;;;32.80;13.73;;;9.50;99.90;;;;;;4401329;28;659099;-86
2021/04/02 00:31:58;;;;;;;39.33;15.13;;;9.50;99.90;;;;;;4403859;28;658543;-86
2021/04/02 00:34:45;;;;;;;35.70;13.83;;;9.50;99.90;;;;;;4425607;28;659649;-85
2021/04/02 00:37:32;;;;;;;26.57;11.17;;;9.50;99.90;;;;;;4410332;28;659602;-86
2021/04/02 00:40:20;;;;;;;32.00;13.70;;;9.60;99.90;;;;;;4444491;28;658555;-86
2021/04/02 00:43:08;;;;;;;48.07;18.27;;;9.50;99.90;;;;;;4429543;28;659116;-86
2021/04/02 00:45:55;;;;;;;47.97;21.33;;;9.30;99.90;;;;;;4398313;28;658636;-85
2021/04/02 00:48:43;;;;;;;49.10;22.08;;;9.20;99.90;;;;;;4397689;28;659090;-86
2021/04/02 00:51:30;;;;;;;58.27;23.80;;;9.20;99.90;;;;;;4419483;28;659166;-85
2021/04/02 00:54:17;;;;;;;59.13;24.23;;;9.10;99.90;;;;;;4405068;28;658590;-86
2021/04/02 00:57:05;;;;;;;53.00;21.90;;;9.10;99.90;;;;;;4437961;28;659474;-85
2021/04/02 00:59:53;;;;;;;49.53;20.47;;;9.00;99.90;;;;;;4405950;28;659078;-86
2021/04/02 01:02:40;;;;;;;48.73;19.23;;;9.10;99.90;;;;;;4434244;28;658834;-86
2021/04/02 01:05:31;;;;;;;41.25;18.05;;;9.10;99.90;;;;;;4384429;28;659011;-86
2021/04/02 01:08:20;;;;;;;42.50;17.60;;;9.10;99.90;;;;;;4392958;28;658531;-86
2021/04/02 01:11:10;;;;;;;34.63;15.40;;;9.10;99.90;;;;;;4414234;28;658352;-86
2021/04/02 01:13:57;;;;;;;38.87;15.30;;;9.10;99.90;;;;;;4414469;28;659267;-86
2021/04/02 01:16:46;;;;;;;39.00;13.97;;;9.10;99.90;;;;;;4395534;28;658837;-86
2021/04/02 01:19:36;;;;;;;37.20;13.23;;;9.10;99.90;;;;;;4382816;28;658860;-86
2021/04/02 01:22:24;;;;;;;35.00;13.00;;;9.10;99.90;;;;;;4412831;28;658758;-86
2021/04/02 01:25:17;;;;;;;32.97;12.60;;;9.10;99.90;;;;;;4424121;28;658838;-86
2021/04/02 01:28:12;;;;;;;28.50;11.47;;;9.20;99.90;;;;;;4399047;28;658396;-86
2021/04/02 01:31:01;;;;;;;33.23;12.53;;;9.10;99.90;;;;;;4416020;28;659240;-86
2021/04/02 01:33:48;;;;;;;26.97;11.70;;;9.10;99.90;;;;;;4400669;28;658604;-86
2021/04/02 01:36:35;;;;;;;31.67;12.20;;;9.10;99.90;;;;;;4421344;28;659251;-85
2021/04/02 01:39:22;;;;;;;40.25;13.75;;;9.00;99.90;;;;;;4386926;28;658425;-86
2021/04/02 01:42:12;;;;;;;32.20;12.73;;;9.00;99.90;;;;;;4430860;28;659203;-86
2021/04/02 01:45:02;;;;;;;33.60;12.40;;;9.00;99.90;;;;;;4410869;28;658631;-85
2021/04/02 01:47:50;;;;;;;46.97;12.73;;;9.00;99.90;;;;;;4425136;28;658851;-86
2021/04/02 01:50:37;;;;;;;36.30;12.53;;;9.00;99.90;;;;;;4427567;28;658885;-86
2021/04/02 01:53:27;;;;;;;41.30;13.33;;;9.00;99.90;;;;;;4423618;28;658635;-86
2021/04/02 01:56:14;;;;;;;37.37;11.57;;;9.00;99.90;;;;;;4399920;28;658730;-86
2021/04/02 01:59:02;;;;;;;39.20;13.30;;;8.90;99.90;;;;;;4423410;28;658989;-85
2021/04/02 02:01:50;;;;;;;40.90;14.02;;;8.90;99.90;;;;;;4394173;28;659445;-86
2021/04/02 02:04:37;;;;;;;33.00;12.97;;;8.90;99.90;;;;;;4423741;28;659173;-86
2021/04/02 02:07:24;;;;;;;34.87;13.63;;;8.90;99.90;;;;;;4394436;28;658935;-86
2021/04/02 02:10:12;;;;;;;34.20;13.90;;;8.90;99.90;;;;;;4447188;28;659036;-85
2021/04/02 02:13:00;;;;;;;33.67;13.80;;;8.90;99.90;;;;;;4402099;28;659666;-85
2021/04/02 02:15:46;;;;;;;37.67;14.80;;;8.90;99.90;;;;;;4417719;28;658316;-86
2021/04/02 02:18:34;;;;;;;38.27;15.47;;;8.80;99.90;;;;;;4403869;28;658411;-86
2021/04/02 02:21:22;;;;;;;40.83;16.27;;;8.80;99.90;;;;;;4414183;28;658853;-86
2021/04/02 02:24:09;;;;;;;40.13;16.93;;;8.90;99.90;;;;;;4408603;28;659460;-86
2021/04/02 02:26:57;;;;;;;38.67;17.47;;;9.00;99.90;;;;;;4436605;28;659332;-86
2021/04/02 02:29:44;;;;;;;39.47;17.63;;;8.90;99.90;;;;;;4403899;28;658687;-85
2021/04/02 02:32:31;;;;;;;39.63;18.20;;;9.00;99.90;;;;;;4438670;28;659092;-86
2021/04/02 02:35:18;;;;;;;46.87;19.53;;;9.00;99.90;;;;;;4396384;28;658873;-86
2021/04/02 02:38:06;;;;;;;43.57;18.57;;;9.00;99.90;;;;;;4434804;28;659465;-86
2021/04/02 02:40:53;;;;;;;46.90;19.13;;;9.10;99.90;;;;;;4408930;28;658816;-86
2021/04/02 02:43:40;;;;;;;50.87;18.73;;;9.00;99.90;;;;;;4422131;28;659555;-86
2021/04/02 02:46:27;;;;;;;60.03;26.00;;;9.00;99.90;;;;;;4396724;28;658595;-86
2021/04/02 02:49:16;;;;;;;59.80;26.77;;;9.00;99.90;;;;;;4426813;28;658986;-86
2021/04/02 02:52:04;;;;;;;58.70;28.07;;;9.00;99.90;;;;;;4415455;28;658586;-86
2021/04/02 02:54:52;;;;;;;63.17;28.60;;;9.00;99.90;;;;;;4427629;28;657952;-85
2021/04/02 02:57:39;;;;;;;66.30;28.07;;;9.00;99.90;;;;;;4389036;28;659457;-86
2021/04/02 03:00:28;;;;;;;63.00;28.15;;;9.00;99.90;;;;;;4423299;28;658997;-85
2021/04/02 03:03:16;;;;;;;66.47;31.17;;;9.00;99.90;;;;;;4396856;28;659045;-85
2021/04/02 03:06:04;;;;;;;71.80;32.53;;;8.90;99.90;;;;;;4390374;28;658914;-85
2021/04/02 03:08:52;;;;;;;67.93;30.57;;;8.90;99.90;;;;;;4411979;28;658692;-85
2021/04/02 03:11:41;;;;;;;63.28;31.33;;;8.90;99.90;;;;;;4404346;28;659332;-86
2021/04/02 03:14:28;;;;;;;65.77;29.47;;;8.90;99.90;;;;;;4399117;28;658671;-85
2021/04/02 03:17:15;;;;;;;69.77;32.33;;;8.80;99.90;;;;;;4429271;28;659223;-85
2021/04/02 03:20:03;;;;;;;71.60;32.22;;;8.80;99.90;;;;;;4400606;28;658802;-86
2021/04/02 03:22:51;;;;;;;70.80;32.53;;;8.80;99.90;;;;;;4419423;28;660073;-85
2021/04/02 03:25:38;;;;;;;70.57;31.23;;;8.80;99.90;;;;;;4410134;28;658534;-87
2021/04/02 03:28:26;;;;;;;58.23;27.93;;;8.80;99.90;;;;;;4437609;28;658521;-87
2021/04/02 03:31:13;;;;;;;62.23;29.73;;;8.70;99.90;;;;;;4394074;28;658578;-87
2021/04/02 03:34:00;;;;;;;51.37;26.27;;;8.70;99.90;;;;;;4412426;28;659287;-86
2021/04/02 03:36:48;;;;;;;54.93;26.00;;;8.70;99.90;;;;;;4409348;28;658872;-87
2021/04/02 03:39:35;;;;;;;51.17;24.43;;;8.70;99.90;;;;;;4428176;28;659676;-87
2021/04/02 03:42:22;;;;;;;50.07;24.57;;;8.60;99.90;;;;;;4433660;28;659186;-87
2021/04/02 03:45:11;;;;;;;46.53;23.30;;;8.60;99.90;;;;;;4416957;28;658536;-86
2021/04/02 03:47:58;;;;;;;43.07;21.83;;;8.60;99.90;;;;;;4389272;28;659161;-87
2021/04/02 03:50:48;;;;;;;42.13;19.83;;;8.60;99.90;;;;;;4425309;28;659231;-87
2021/04/02 03:53:38;;;;;;;37.70;20.38;;;8.60;99.90;;;;;;4389436;28;659725;-87
2021/04/02 03:56:27;;;;;;;38.73;19.53;;;8.50;99.90;;;;;;4408091;28;659208;-86
2021/04/02 03:59:14;;;;;;;31.27;17.77;;;8.50;99.90;;;;;;4394663;28;659422;-87
2021/04/02 04:02:02;;;;;;;28.00;15.50;;;8.50;99.90;;;;;;4415578;28;659071;-86
2021/04/02 04:04:49;;;;;;;24.97;12.23;;;8.50;99.90;;;;;;4414861;28;658946;-87
2021/04/02 04:07:36;;;;;;;20.97;10.67;;;8.40;99.90;;;;;;4425073;28;658723;-86
2021/04/02 04:10:23;;;;;;;15.13;8.47;;;8.30;99.90;;;;;;4391217;28;658537;-86
2021/04/02 04:13:13;;;;;;;12.60;7.83;;;8.20;99.90;;;;;;4424260;28;658807;-87
2021/04/02 04:16:00;;;;;;;15.73;7.47;;;8.10;99.90;;;;;;4406580;28;658494;-86
2021/04/02 04:18:49;;;;;;;12.97;7.17;;;8.00;99.90;;;;;;4392269;28;657601;-87
2021/04/02 04:21:37;;;;;;;13.57;7.00;;;7.80;99.90;;;;;;4425659;28;657892;-87
2021/04/02 04:24:26;;;;;;;12.73;7.43;;;7.70;99.90;;;;;;4396768;28;657897;-87
2021/04/02 04:27:13;;;;;;;13.23;6.63;;;7.60;99.90;;;;;;4408885;28;657680;-86
2021/04/02 04:30:01;;;;;;;11.80;7.20;;;7.50;99.90;;;;;;4417252;28;658737;-86
2021/04/02 04:32:48;;;;;;;11.97;7.17;;;7.40;99.90;;;;;;4405025;28;658892;-87
2021/04/02 04:35:37;;;;;;;11.10;6.55;;;7.40;99.90;;;;;;4418474;28;658919;-86
2021/04/02 04:38:24;;;;;;;13.03;6.80;;;7.30;99.90;;;;;;4416210;28;657681;-86
2021/04/02 04:41:11;;;;;;;10.70;6.80;;;7.30;99.90;;;;;;4437479;28;658107;-86
2021/04/02 04:43:58;;;;;;;10.30;6.60;;;7.20;99.90;;;;;;4386794;28;658049;-86
2021/04/02 04:46:45;;;;;;;13.03;7.43;;;7.20;99.90;;;;;;4425187;28;658236;-87
2021/04/02 04:49:32;;;;;;;13.70;7.47;;;7.10;99.90;;;;;;4409687;28;657630;-86
2021/04/02 04:52:21;;;;;;;10.73;6.60;;;7.10;99.90;;;;;;4426692;28;658737;-86
2021/04/02 04:55:09;;;;;;;10.90;6.47;;;7.00;99.90;;;;;;4427416;28;658060;-86
2021/04/02 04:57:56;;;;;;;11.50;6.67;;;7.00;99.90;;;;;;4416925;28;658363;-86
2021/04/02 05:00:44;;;;;;;10.60;6.43;;;6.90;99.90;;;;;;4391793;28;657486;-87
2021/04/02 05:03:32;;;;;;;11.00;6.73;;;6.80;99.90;;;;;;4437602;28;657435;-86
2021/04/02 05:06:22;;;;;;;9.07;6.38;;;6.80;99.90;;;;;;4415313;28;658602;-87
2021/04/02 05:09:10;;;;;;;9.32;5.43;;;6.70;99.90;;;;;;4398968;28;656910;-86
2021/04/02 05:11:58;;;;;;;10.63;6.73;;;6.70;99.90;;;;;;4407044;28;657866;-87
2021/04/02 05:14:45;;;;;;;8.55;6.00;;;6.60;99.90;;;;;;4426701;28;658184;-86
2021/04/02 05:17:32;;;;;;;9.33;6.17;;;6.60;99.90;;;;;;4393843;28;656650;-86
2021/04/02 05:20:20;;;;;;;9.43;6.30;;;6.40;99.90;;;;;;4430624;28;657185;-85
2021/04/02 05:23:07;;;;;;;8.90;6.33;;;6.40;99.90;;;;;;4422103;28;656277;-86
2021/04/02 05:25:55;;;;;;;8.82;5.95;;;6.30;99.90;;;;;;4439393;28;656278;-86
2021/04/02 05:28:42;;;;;;;9.07;5.60;;;6.30;99.90;;;;;;4388561;28;656962;-86
2021/04/02 05:31:30;;;;;;;8.45;6.15;;;6.20;99.90;;;;;;4446188;28;656378;-86
2021/04/02 05:34:17;;;;;;;8.07;5.80;;;6.10;99.90;;;;;;4432738;28;656440;-85
2021/04/02 05:37:04;;;;;;;7.37;5.27;;;6.10;99.90;;;;;;4398733;28;656994;-85
2021/04/02 05:39:51;;;;;;;8.67;6.23;;;5.90;99.90;;;;;;4420540;28;656508;-85
2021/04/02 05:42:41;;;;;;;9.83;6.83;;;5.80;99.90;;;;;;4407026;28;656476;-86
2021/04/02 05:45:28;;;;;;;9.50;6.60;;;5.80;99.90;;;;;;4390617;28;657064;-86
2021/04/02 05:48:16;;;;;;;9.83;6.77;;;5.70;99.90;;;;;;4436037;28;656984;-86
2021/04/02 05:51:04;;;;;;;9.63;6.90;;;5.60;99.90;;;;;;4397612;28;657135;-87
2021/04/02 05:53:51;;;;;;;11.40;7.33;;;5.60;99.90;;;;;;4423686;28;656331;-85
2021/04/02 05:56:38;;;;;;;104.43;28.60;;;5.50;99.90;;;;;;4409045;28;657960;-85
2021/04/02 05:59:26;;;;;;;48.23;17.23;;;5.50;99.90;;;;;;4417257;28;660907;-85
2021/04/02 06:02:13;;;;;;;21.53;10.53;;;5.50;99.90;;;;;;4398485;28;658770;-86
2021/04/02 06:05:01;;;;;;;20.47;10.87;;;5.50;99.90;;;;;;4431818;28;659316;-85
2021/04/02 06:07:48;;;;;;;94.10;31.47;;;5.30;99.90;;;;;;4398237;28;658453;-85
2021/04/02 06:10:35;;;;;;;24.70;12.43;;;5.20;99.90;;;;;;4419475;28;658696;-86
2021/04/02 06:13:22;;;;;;;34.17;14.73;;;5.10;99.90;;;;;;4396746;28;658777;-86
2021/04/02 06:16:10;;;;;;;25.10;13.50;;;5.10;99.90;;;;;;4411867;28;658872;-85
2021/04/02 06:18:59;;;;;;;35.00;20.30;;;5.10;99.90;;;;;;4395964;28;658517;-86
2021/04/02 06:21:47;;;;;;;122.97;45.57;;;5.10;99.90;;;;;;4419750;28;658251;-85
2021/04/02 06:24:36;;;;;;;20.93;12.33;;;5.10;99.90;;;;;;4373377;28;660382;-86
2021/04/02 06:27:23;;;;;;;76.17;26.97;;;5.20;99.90;;;;;;4372615;28;658565;-87
2021/04/02 06:30:11;;;;;;;44.17;19.33;;;5.10;99.90;;;;;;4410832;28;659428;-85
2021/04/02 06:33:00;;;;;;;27.23;13.80;;;5.20;99.90;;;;;;4399988;28;658569;-85
2021/04/02 06:35:47;;;;;;;34.97;16.27;;;5.20;99.90;;;;;;4397950;28;658728;-87
2021/04/02 06:38:34;;;;;;;33.17;16.80;;;5.20;99.90;;;;;;4433644;28;658766;-85
2021/04/02 06:41:22;;;;;;;37.33;18.70;;;5.30;99.90;;;;;;4404970;28;658255;-85
2021/04/02 06:44:09;;;;;;;26.90;14.23;;;5.30;99.90;;;;;;4401210;28;659378;-86
2021/04/02 06:46:57;;;;;;;25.07;13.67;;;5.20;99.90;;;;;;4409487;28;658495;-86
2021/04/02 06:49:46;;;;;;;22.27;13.80;;;5.30;99.90;;;;;;4395441;28;659170;-85
2021/04/02 06:52:33;;;;;;;20.10;12.23;;;5.30;99.90;;;;;;4392987;28;658514;-86
2021/04/02 06:55:21;;;;;;;24.93;13.83;;;5.30;99.90;;;;;;4399089;28;658750;-86
2021/04/02 06:58:10;;;;;;;26.97;15.17;;;5.30;99.90;;;;;;4379049;28;658665;-86
2021/04/02 07:01:02;;;;;;;30.37;17.87;;;5.30;99.90;;;;;;4410913;28;658456;-85
2021/04/02 07:03:49;;;;;;;30.43;16.53;;;5.30;99.90;;;;;;4388101;28;660102;-86
2021/04/02 07:06:37;;;;;;;20.27;12.40;;;5.30;99.90;;;;;;4423353;28;658614;-85
2021/04/02 07:09:24;;;;;;;14.90;9.10;;;5.30;99.90;;;;;;4391213;28;659314;-85
2021/04/02 07:12:12;;;;;;;14.77;9.27;;;5.30;99.90;;;;;;4417349;28;656946;-85
2021/04/02 07:14:59;;;;;;;17.73;10.50;;;5.30;99.90;;;;;;4402029;28;658125;-85
2021/04/02 07:17:47;;;;;;;22.90;15.10;;;5.30;99.90;;;;;;4420031;28;658603;-85
2021/04/02 07:20:34;;;;;;;19.97;12.57;;;5.30;99.90;;;;;;4396554;28;659240;-86
2021/04/02 07:23:25;;;;;;;16.80;10.23;;;5.30;99.90;;;;;;4396995;28;658742;-86
2021/04/02 07:26:12;;;;;;;15.23;10.47;;;5.20;99.90;;;;;;4407578;28;658735;-87
2021/04/02 07:28:59;;;;;;;17.20;10.37;;;5.20;99.90;;;;;;4407325;28;659212;-85
2021/04/02 07:31:47;;;;;;;17.97;11.37;;;5.30;99.90;;;;;;4412196;28;659327;-85
2021/04/02 07:34:34;;;;;;;19.47;13.03;;;5.30;99.90;;;;;;4395935;28;658807;-85
2021/04/02 07:37:21;;;;;;;17.57;11.00;;;5.30;99.90;;;;;;4412986;28;658903;-85
2021/04/02 07:40:10;;;;;;;21.47;10.10;;;5.40;99.90;;;;;;4376557;28;658878;-86
2021/04/02 07:42:58;;;;;;;15.30;10.47;;;5.40;99.90;;;;;;4390129;28;658929;-85
2021/04/02 07:45:52;;;;;;;11.10;7.73;;;5.40;99.90;;;;;;4402886;28;658887;-85
2021/04/02 07:48:39;;;;;;;15.13;9.97;;;5.40;99.90;;;;;;4386667;28;658231;-85
2021/04/02 07:51:39;;;;;;;13.30;8.10;;;5.40;99.90;;;;;;4419968;28;657577;-85
2021/04/02 07:54:29;;;;;;;17.37;10.20;;;5.40;99.90;;;;;;4396151;28;657412;-85
2021/04/02 07:57:17;;;;;;;13.13;8.47;;;5.40;99.90;;;;;;4400355;28;658988;-85
2021/04/02 08:00:06;;;;;;;13.40;7.93;;;5.40;99.90;;;;;;4395644;28;658013;-85
2021/04/02 08:03:12;;;;;;;12.20;8.07;;;5.40;99.90;;;;;;4395452;28;658391;-84
2021/04/02 08:06:02;;;;;;;12.63;7.30;;;5.40;99.90;;;;;;4379669;28;657665;-84
2021/04/02 08:08:49;;;;;;;10.10;7.10;;;5.50;99.90;;;;;;4397229;28;657694;-85
2021/04/02 08:11:37;;;;;;;11.27;7.60;;;5.40;99.90;;;;;;4418669;28;657877;-82
2021/04/02 08:14:32;;;;;;;11.97;7.73;;;5.40;99.90;;;;;;4406229;28;657669;-84
2021/04/02 08:17:21;;;;;;;10.97;6.97;;;5.50;99.90;;;;;;4394628;28;657933;-84
2021/04/02 08:20:09;;;;;;;10.30;6.73;;;5.60;99.90;;;;;;4401866;28;657570;-84
2021/04/02 08:22:56;;;;;;;11.77;6.77;;;5.90;99.90;;;;;;4439358;28;657932;-84
2021/04/02 08:25:43;;;;;;;11.40;7.10;;;6.10;99.90;;;;;;4397471;28;657510;-85
2021/04/02 08:28:30;;;;;;;11.27;7.17;;;6.30;99.90;;;;;;4434844;28;657550;-85
2021/04/02 08:31:18;;;;;;;12.07;7.90;;;6.30;99.90;;;;;;4431003;28;657416;-85
2021/04/02 08:34:05;;;;;;;11.57;7.50;;;6.50;99.90;;;;;;4406875;28;658357;-85
2021/04/02 08:36:54;;;;;;;11.30;6.93;;;6.60;99.90;;;;;;4404574;28;657851;-85
2021/04/02 08:39:41;;;;;;;11.37;7.00;;;6.60;99.90;;;;;;4420621;28;657640;-84
2021/04/02 08:42:29;;;;;;;12.60;7.50;;;6.60;99.90;;;;;;4399307;28;657657;-85
2021/04/02 08:45:18;;;;;;;9.13;6.80;;;6.60;99.90;;;;;;4432423;28;658235;-85
2021/04/02 08:48:07;;;;;;;10.10;6.83;;;6.70;99.90;;;;;;4409191;28;657598;-85
2021/04/02 08:50:54;;;;;;;10.90;6.77;;;6.80;99.90;;;;;;4397959;28;657932;-85
2021/04/02 08:53:41;;;;;;;10.73;6.50;;;6.50;99.90;;;;;;4428632;28;658550;-83
2021/04/02 08:56:29;;;;;;;8.50;6.00;;;6.60;99.90;;;;;;4411971;28;657578;-84
2021/04/02 08:59:16;;;;;;;8.03;5.50;;;6.90;99.90;;;;;;4432564;28;656290;-84
2021/04/02 09:02:04;;;;;;;8.75;5.97;;;7.00;99.90;;;;;;4413668;28;656726;-85
2021/04/02 09:04:51;;;;;;;12.03;7.33;;;7.00;99.90;;;;;;4424875;28;657302;-85
2021/04/02 09:07:39;;;;;;;11.80;7.67;;;7.30;99.90;;;;;;4395735;28;657850;-86
2021/04/02 09:10:26;;;;;;;13.37;6.37;;;7.40;99.90;;;;;;4421636;28;658065;-84
2021/04/02 09:13:13;;;;;;;10.47;6.77;;;7.80;99.90;;;;;;4419579;28;657340;-84
2021/04/02 09:16:05;;;;;;;10.63;6.73;;;8.00;99.90;;;;;;4419752;28;657874;-84
2021/04/02 09:18:54;;;;;;;9.73;6.23;;;8.20;99.90;;;;;;4407029;28;658046;-85
2021/04/02 09:21:42;;;;;;;13.30;6.90;;;8.40;99.90;;;;;;4426798;28;656357;-84
2021/04/02 09:24:29;;;;;;;16.70;9.40;;;8.70;99.90;;;;;;4408760;28;658030;-85
2021/04/02 09:27:17;;;;;;;11.30;7.50;;;8.90;99.90;;;;;;4415374;28;658058;-86
2021/04/02 09:30:05;;;;;;;11.63;7.90;;;9.10;99.90;;;;;;4384780;28;657850;-86
2021/04/02 09:32:53;;;;;;;8.67;6.07;;;9.30;99.90;;;;;;4410049;28;657425;-86
2021/04/02 09:35:41;;;;;;;11.67;6.60;;;9.50;99.90;;;;;;4426745;28;657715;-85
2021/04/02 09:38:29;;;;;;;9.60;6.40;;;9.80;99.90;;;;;;4409406;28;658088;-85
2021/04/02 09:41:21;;;;;;;10.07;6.70;;;10.00;99.90;;;;;;4431475;28;656988;-85
2021/04/02 09:44:10;;;;;;;8.20;6.03;;;9.90;99.90;;;;;;4398458;28;658836;-84
2021/04/02 09:47:01;;;;;;;8.43;5.70;;;10.20;99.90;;;;;;4422651;28;656530;-86
2021/04/02 09:49:49;;;;;;;8.10;5.37;;;10.10;99.90;;;;;;4396913;28;657606;-84
2021/04/02 09:52:37;;;;;;;6.73;5.03;;;10.00;99.90;;;;;;4425450;28;657953;-84
2021/04/02 09:55:25;;;;;;;8.07;5.30;;;10.00;99.90;;;;;;4407776;28;657971;-85
2021/04/02 09:58:12;;;;;;;7.40;5.67;;;10.10;99.90;;;;;;4414686;28;657838;-86
2021/04/02 10:00:59;;;;;;;7.28;5.53;;;9.90;99.90;;;;;;4420200;28;657564;-84
2021/04/02 10:03:47;;;;;;;9.25;5.40;;;10.10;99.90;;;;;;4435293;28;656134;-83
2021/04/02 10:06:34;;;;;;;7.97;5.27;;;10.70;99.90;;;;;;4412494;28;657435;-84
2021/04/02 10:09:21;;;;;;;8.43;5.70;;;11.20;99.90;;;;;;4424137;28;658805;-84
2021/04/02 10:12:10;;;;;;;6.40;4.72;;;11.70;99.90;;;;;;4402050;28;657452;-85
2021/04/02 10:14:57;;;;;;;7.13;4.67;;;11.20;96.10;;;;;;4417071;28;657485;-86
2021/04/02 10:17:44;;;;;;;5.73;4.50;;;11.20;99.90;;;;;;4434486;28;657764;-84
2021/04/02 10:20:31;;;;;;;8.37;4.20;;;11.00;99.90;;;;;;4427041;28;657372;-83
2021/04/02 10:23:18;;;;;;;8.97;5.60;;;10.50;97.80;;;;;;4422002;28;657494;-85
2021/04/02 10:26:05;;;;;;;7.00;4.90;;;10.60;99.90;;;;;;4434511;28;657697;-85
2021/04/02 10:28:53;;;;;;;6.43;4.63;;;10.70;97.70;;;;;;4417936;28;657897;-85
2021/04/02 10:31:40;;;;;;;7.70;4.37;;;10.50;95.80;;;;;;4424322;28;658645;-85
2021/04/02 10:34:28;;;;;;;5.77;4.27;;;10.50;98.20;;;;;;4411856;28;657727;-85
2021/04/02 10:37:15;;;;;;;6.03;4.03;;;10.80;96.30;;;;;;4430776;28;658669;-85
2021/04/02 10:40:03;;;;;;;6.17;3.57;;;11.80;95.60;;;;;;4425485;28;658359;-86
2021/04/02 10:42:50;;;;;;;5.77;4.30;;;12.10;90.50;;;;;;4437326;28;659249;-85
2021/04/02 10:45:38;;;;;;;5.97;4.47;;;12.90;93.50;;;;;;4437460;28;658003;-85
2021/04/02 10:48:26;;;;;;;7.23;5.00;;;13.10;87.80;;;;;;4433498;28;657636;-85
2021/04/02 10:51:13;;;;;;;6.30;4.23;;;13.50;91.20;;;;;;4411636;28;657999;-85
2021/04/02 10:54:01;;;;;;;5.53;4.07;;;14.20;86.50;;;;;;4416695;28;658315;-84
2021/04/02 10:56:48;;;;;;;5.73;3.57;;;14.10;77.40;;;;;;4407053;28;657570;-84
2021/04/02 10:59:35;;;;;;;6.90;5.37;;;13.90;76.00;;;;;;4415396;28;658179;-84
2021/04/02 11:02:23;;;;;;;9.27;6.60;;;13.30;74.70;;;;;;4415702;28;657496;-85
2021/04/02 11:05:11;;;;;;;9.30;6.50;;;12.50;76.40;;;;;;4420812;28;658772;-84
2021/04/02 11:07:58;;;;;;;7.17;5.80;;;12.00;79.60;;;;;;4408841;28;657779;-84
2021/04/02 11:10:45;;;;;;;8.03;5.33;;;11.70;82.20;;;;;;4402182;28;658354;-84
2021/04/02 11:13:32;;;;;;;6.50;5.40;;;11.90;80.10;;;;;;4389021;28;657877;-85
2021/04/02 11:16:19;;;;;;;7.30;4.93;;;12.40;84.30;;;;;;4413657;28;657496;-84
2021/04/02 11:19:07;;;;;;;5.50;4.20;;;12.30;75.10;;;;;;4415658;28;657173;-83
2021/04/02 11:21:54;;;;;;;4.40;3.27;;;12.30;79.40;;;;;;4390561;28;658164;-84
2021/04/02 11:24:41;;;;;;;4.57;3.50;;;12.80;75.20;;;;;;4411480;28;658388;-84
2021/04/02 11:27:28;;;;;;;8.48;4.40;;;13.40;78.20;;;;;;4391629;28;657913;-85
2021/04/02 11:30:16;;;;;;;6.37;4.03;;;14.30;75.90;;;;;;4416259;28;658119;-84
2021/04/02 11:33:04;;;;;;;4.60;3.20;;;14.70;75.00;;;;;;4387317;28;657598;-83
2021/04/02 11:35:52;;;;;;;5.80;3.70;;;15.10;68.70;;;;;;4414338;28;658265;-83
2021/04/02 11:38:39;;;;;;;5.00;3.83;;;15.00;63.30;;;;;;4378043;28;658540;-84
2021/04/02 11:41:26;;;;;;;7.00;4.60;;;14.20;61.90;;;;;;4411092;28;657500;-85
2021/04/02 11:44:13;;;;;;;9.48;5.20;;;13.70;65.40;;;;;;4387286;28;657610;-85
2021/04/02 11:47:00;;;;;;;7.60;5.10;;;14.10;67.20;;;;;;4413383;28;657723;-84
2021/04/02 11:49:47;;;;;;;7.27;5.00;;;14.30;66.60;;;;;;4394926;28;657865;-84
2021/04/02 11:52:36;;;;;;;6.47;4.60;;;15.30;74.50;;;;;;4400282;28;657897;-84
2021/04/02 11:55:23;;;;;;;6.33;4.80;;;16.10;70.00;;;;;;4390883;28;657833;-85
2021/04/02 11:58:10;;;;;;;7.38;5.15;;;16.70;59.70;;;;;;4408957;28;658078;-84
2021/04/02 12:00:57;;;;;;;8.07;5.23;;;16.60;60.50;;;;;;4391340;28;657413;-85
2021/04/02 12:03:44;;;;;;;7.85;5.88;;;16.50;57.80;;;;;;4412738;28;657450;-83
2021/04/02 12:06:31;;;;;;;7.73;5.53;;;15.60;59.10;;;;;;4410017;28;658057;-83
2021/04/02 12:09:19;;;;;;;7.17;5.57;;;15.70;61.00;;;;;;4400171;28;658318;-84
2021/04/02 12:12:08;;;;;;;7.27;5.50;;;15.50;59.80;;;;;;4418648;28;657810;-84
2021/04/02 12:14:55;;;;;;;8.60;5.10;;;15.30;60.20;;;;;;4392695;28;658480;-84
2021/04/02 12:17:42;;;;;;;8.30;5.60;;;15.10;60.00;;;;;;4417009;28;657943;-83
2021/04/02 12:20:29;;;;;;;7.47;4.97;;;14.60;57.10;;;;;;4387200;28;657450;-84
2021/04/02 12:23:16;;;;;;;7.50;4.80;;;13.30;57.70;;;;;;4413467;28;658386;-84
2021/04/02 12:26:04;;;;;;;6.23;4.37;;;13.30;63.50;;;;;;4393687;28;657870;-84
2021/04/02 12:28:51;;;;;;;6.00;4.33;;;14.00;60.60;;;;;;4415849;28;657200;-84
2021/04/02 12:31:38;;;;;;;6.53;5.27;;;13.70;58.00;;;;;;4383795;28;657604;-84
2021/04/02 12:34:25;;;;;;;6.87;4.67;;;13.80;57.40;;;;;;4416861;28;658543;-84
2021/04/02 12:37:12;;;;;;;6.47;4.60;;;14.10;58.70;;;;;;4406947;28;657534;-85
2021/04/02 12:40:00;;;;;;;6.67;4.93;;;14.50;57.50;;;;;;4417142;28;657538;-84
2021/04/02 12:42:48;;;;;;;7.03;4.57;;;14.80;56.90;;;;;;4403297;28;657686;-85
2021/04/02 12:45:35;;;;;;;6.00;3.60;;;15.40;57.70;;;;;;4413863;28;657699;-84
2021/04/02 12:48:24;;;;;;;5.53;3.70;;;15.90;57.10;;;;;;4393813;28;658107;-85
2021/04/02 12:51:11;;;;;;;9.15;4.40;;;16.40;55.40;;;;;;4421695;28;657572;-84
2021/04/02 12:53:58;;;;;;;6.30;4.17;;;16.10;52.90;;;;;;4393177;28;657502;-84
2021/04/02 12:56:45;;;;;;;5.80;3.90;;;15.70;54.90;;;;;;4403064;28;659355;-84
2021/04/02 12:59:34;;;;;;;5.83;4.40;;;14.90;54.80;;;;;;4393478;28;657583;-84
2021/04/02 13:02:21;;;;;;;7.50;4.40;;;14.20;54.80;;;;;;4412833;28;657822;-84
2021/04/02 13:05:09;;;;;;;8.43;4.63;;;14.50;58.20;;;;;;4393341;28;657786;-84
2021/04/02 13:07:56;;;;;;;6.97;4.27;;;14.80;59.60;;;;;;4415679;28;657644;-83
2021/04/02 13:10:43;;;;;;;7.73;4.90;;;15.20;57.50;;;;;;4386246;28;658539;-85
2021/04/02 13:13:30;;;;;;;6.30;4.80;;;15.30;55.70;;;;;;4415868;28;657959;-84
2021/04/02 13:16:18;;;;;;;8.63;5.37;;;15.10;55.10;;;;;;4393009;28;657844;-85
2021/04/02 13:19:06;;;;;;;7.77;4.60;;;15.70;57.60;;;;;;4413377;28;658537;-83
2021/04/02 13:21:54;;;;;;;8.77;5.40;;;16.00;53.90;;;;;;4385540;28;657739;-84
2021/04/02 13:24:41;;;;;;;9.47;5.30;;;15.50;57.30;;;;;;4403884;28;658059;-84
2021/04/02 13:27:28;;;;;;;10.33;5.27;;;15.10;53.50;;;;;;4394869;28;657652;-84
2021/04/02 13:30:16;;;;;;;13.40;5.70;;;14.40;57.10;;;;;;4415161;28;659454;-84
2021/04/02 13:33:04;;;;;;;11.63;6.10;;;14.70;59.30;;;;;;4389980;28;659053;-85
2021/04/02 13:35:51;;;;;;;10.33;5.13;;;15.50;57.70;;;;;;4417412;28;659011;-84
2021/04/02 13:38:38;;;;;;;12.30;6.00;;;15.90;58.10;;;;;;4388525;28;658893;-84
2021/04/02 13:41:25;;;;;;;10.33;5.63;;;16.40;56.20;;;;;;4415977;28;659391;-84
2021/04/02 13:44:12;;;;;;;10.67;5.67;;;15.80;54.20;;;;;;4394945;28;658297;-85
2021/04/02 13:46:59;;;;;;;9.30;5.57;;;15.50;54.70;;;;;;4417970;28;658468;-84
2021/04/02 13:49:47;;;;;;;15.55;7.53;;;15.60;55.90;;;;;;4406574;28;657326;-84
2021/04/02 13:52:34;;;;;;;15.10;5.40;;;16.50;58.20;;;;;;4389452;28;658715;-84
2021/04/02 13:55:24;;;;;;;17.43;6.07;;;16.90;51.20;;;;;;4416585;28;658847;-83
2021/04/02 13:58:11;;;;;;;11.73;5.00;;;17.40;52.80;;;;;;4394143;28;659143;-84
2021/04/02 14:00:58;;;;;;;8.97;5.10;;;17.70;52.80;;;;;;4391993;28;658370;-86
2021/04/02 14:03:45;;;;;;;9.40;5.27;;;17.90;52.30;;;;;;4409737;28;658819;-84
2021/04/02 14:06:33;;;;;;;8.37;5.30;;;18.10;54.10;;;;;;4414013;28;657805;-85
2021/04/02 14:09:20;;;;;;;14.20;5.70;;;18.00;51.40;;;;;;4412630;28;657634;-84
2021/04/02 14:12:08;;;;;;;11.53;4.90;;;18.70;53.10;;;;;;4384904;28;658748;-85
2021/04/02 14:14:55;;;;;;;10.83;5.00;;;18.70;50.10;;;;;;4416962;28;659545;-84
2021/04/02 14:17:43;;;;;;;13.00;5.10;;;18.80;51.20;;;;;;4393737;28;658865;-85